Time;durP1;ratioP1;P1;durP2;ratioP2;P2;SDS_P1;SDS_P2;PMS_P1;PMS_P2;Temp;Humidity;BMP_temperature;BMP_pressure;BME280_temperature;BME280_humidity;BME280_pressure;Samples;Min_cycle;Max_cycle;Signal;HPM_P1;HPM_P2
2022/01/18 00:01:54;;;;;;;48.65;27.65;;;4.80;99.90;;;;;;5061643;28;20044;-73
2022/01/18 00:04:21;;;;;;;52.25;28.27;;;4.80;99.90;;;;;;5051384;28;20114;-73
2022/01/18 00:06:50;;;;;;;44.75;27.90;;;4.80;99.90;;;;;;5079024;28;20091;-74
2022/01/18 00:09:22;;;;;;;52.75;30.10;;;4.70;99.90;;;;;;5047769;28;20020;-74
2022/01/18 00:11:56;;;;;;;59.95;31.13;;;4.80;99.90;;;;;;5064690;28;20027;-73
2022/01/18 00:17:05;;;;;;;51.97;30.35;;;4.80;99.90;;;;;;4798319;22;20132;-75
2022/01/18 00:19:34;;;;;;;62.17;29.52;;;4.70;99.90;;;;;;4995389;28;20023;-74
2022/01/18 00:22:18;;;;;;;51.78;28.88;;;4.70;99.90;;;;;;4994922;28;20077;-74
2022/01/18 00:24:44;;;;;;;49.20;28.73;;;4.60;99.90;;;;;;4994289;28;20146;-74
2022/01/18 00:27:13;;;;;;;50.78;28.85;;;4.60;99.90;;;;;;4993292;28;20054;-73
2022/01/18 00:29:49;;;;;;;55.03;30.05;;;4.60;99.90;;;;;;4994375;28;20022;-74
2022/01/18 00:32:52;;;;;;;53.38;29.17;;;4.60;99.90;;;;;;4994072;28;20027;-73
2022/01/18 00:35:01;;;;;;;51.35;29.60;;;4.60;99.90;;;;;;4993636;28;20076;-73
2022/01/18 00:37:34;;;;;;;50.72;29.75;;;4.60;99.90;;;;;;4993377;28;20062;-74
2022/01/18 00:40:00;;;;;;;55.92;30.42;;;4.60;99.90;;;;;;4985077;28;20093;-73
2022/01/18 00:42:26;;;;;;;52.15;28.95;;;4.70;99.90;;;;;;4993405;28;20096;-74
2022/01/18 00:44:51;;;;;;;56.33;29.52;;;4.60;99.90;;;;;;4992837;28;20034;-73
2022/01/18 00:47:17;;;;;;;55.75;29.48;;;4.60;99.90;;;;;;4992947;28;20059;-73
2022/01/18 00:49:46;;;;;;;51.67;27.80;;;4.60;99.90;;;;;;4978209;28;20082;-73
2022/01/18 00:52:14;;;;;;;60.17;32.17;;;4.50;99.90;;;;;;4992072;28;20452;-74
2022/01/18 00:54:43;;;;;;;53.22;30.23;;;4.50;99.90;;;;;;4994025;28;20058;-74
2022/01/18 00:57:09;;;;;;;62.10;33.30;;;4.50;99.90;;;;;;4992626;28;20088;-74
2022/01/18 00:59:36;;;;;;;52.28;30.67;;;4.50;99.90;;;;;;4993574;28;20026;-73
2022/01/18 01:02:02;;;;;;;51.10;27.60;;;4.40;99.90;;;;;;4993322;28;20472;-73
2022/01/18 01:04:31;;;;;;;54.65;30.25;;;4.30;99.90;;;;;;4993956;28;20042;-73
2022/01/18 01:06:57;;;;;;;54.38;32.10;;;4.10;99.90;;;;;;4993651;28;20030;-79
2022/01/18 01:09:23;;;;;;;65.93;35.03;;;4.00;99.90;;;;;;4993566;28;20027;-78
2022/01/18 01:11:50;;;;;;;64.85;34.92;;;4.10;99.90;;;;;;4992542;28;20018;-78
2022/01/18 01:14:21;;;;;;;65.28;35.80;;;4.10;99.90;;;;;;4993397;28;20052;-79
2022/01/18 01:32:17;;;;;;;75.75;41.53;;;4.20;99.90;;;;;;4993498;28;20525;-78
2022/01/18 01:47:34;;;;;;;71.75;41.60;;;4.10;99.90;;;;;;5000665;28;20268;-78
2022/01/18 01:50:02;;;;;;;80.28;45.72;;;3.90;99.90;;;;;;4992087;28;20085;-79
2022/01/18 01:52:28;;;;;;;82.60;45.05;;;4.00;99.90;;;;;;4984028;28;20035;-78
2022/01/18 01:54:55;;;;;;;77.72;43.65;;;4.00;99.90;;;;;;4973751;28;20080;-78
2022/01/18 01:57:21;;;;;;;86.78;46.22;;;4.10;99.90;;;;;;4983704;28;20102;-78
2022/01/18 01:59:47;;;;;;;85.47;46.55;;;4.00;99.90;;;;;;4991744;28;20088;-78
2022/01/18 02:02:13;;;;;;;82.18;45.65;;;4.00;99.90;;;;;;4991617;28;20113;-78
2022/01/18 02:04:39;;;;;;;80.63;43.00;;;4.10;99.90;;;;;;4990932;28;20125;-78
2022/01/18 02:07:04;;;;;;;78.55;43.70;;;4.00;99.90;;;;;;4990525;28;20022;-79
2022/01/18 02:09:31;;;;;;;76.60;43.83;;;4.00;99.90;;;;;;4992520;28;20049;-79
2022/01/18 02:12:00;;;;;;;69.13;41.72;;;4.00;99.90;;;;;;4992056;28;20030;-78
2022/01/18 02:14:27;;;;;;;75.78;40.53;;;4.00;99.90;;;;;;4993456;28;20030;-79
2022/01/18 02:22:22;;;;;;;74.47;41.88;;;3.90;99.90;;;;;;4984493;28;20514;-78
2022/01/18 02:24:49;;;;;;;77.07;42.97;;;3.90;99.90;;;;;;4982993;28;20117;-79
2022/01/18 02:27:14;;;;;;;77.05;44.72;;;3.80;99.90;;;;;;4981859;28;20061;-78
2022/01/18 02:29:41;;;;;;;72.53;43.67;;;3.70;99.90;;;;;;4982346;28;20483;-78
2022/01/18 02:32:07;;;;;;;78.75;45.17;;;3.70;99.90;;;;;;4981532;28;20469;-78
2022/01/18 02:34:33;;;;;;;76.05;43.90;;;3.80;99.90;;;;;;4987342;28;20085;-78
2022/01/18 02:36:59;;;;;;;73.03;43.22;;;3.80;99.90;;;;;;4977802;28;20035;-79
2022/01/18 02:39:27;;;;;;;75.18;42.22;;;4.00;99.90;;;;;;4977868;28;20481;-79
2022/01/18 02:41:58;;;;;;;75.07;43.65;;;4.10;99.90;;;;;;4981931;28;20033;-78
2022/01/18 02:44:25;;;;;;;73.38;43.25;;;4.20;99.90;;;;;;4980142;28;20058;-79
2022/01/18 02:46:51;;;;;;;77.32;43.42;;;4.20;99.90;;;;;;4981987;28;20030;-78
2022/01/18 02:49:17;;;;;;;73.43;42.38;;;4.30;99.90;;;;;;4977949;28;20054;-78
2022/01/18 02:51:43;;;;;;;66.25;41.03;;;4.20;99.90;;;;;;4980078;28;20057;-78
2022/01/18 02:54:13;;;;;;;69.90;40.25;;;4.20;99.90;;;;;;4981301;28;20034;-79
2022/01/18 02:56:46;;;;;;;73.10;43.03;;;4.30;99.90;;;;;;4981206;28;20085;-78
2022/01/18 02:59:25;;;;;;;70.45;41.03;;;4.40;99.90;;;;;;4980479;28;20033;-79
2022/01/18 03:04:43;;;;;;;72.07;38.97;;;4.40;99.90;;;;;;4983323;28;20674;-78
2022/01/18 03:07:10;;;;;;;66.43;37.83;;;4.40;99.90;;;;;;4981816;28;20031;-78
2022/01/18 03:09:35;;;;;;;65.20;38.70;;;4.50;99.90;;;;;;4980080;28;20026;-79
2022/01/18 03:12:03;;;;;;;67.28;37.28;;;4.50;99.90;;;;;;4982157;28;20045;-78
2022/01/18 03:14:29;;;;;;;67.20;37.83;;;4.60;99.90;;;;;;4990609;28;20031;-79
2022/01/18 03:16:54;;;;;;;67.82;36.80;;;4.60;99.90;;;;;;4989305;28;20051;-78
2022/01/18 03:19:20;;;;;;;63.75;36.45;;;4.70;99.90;;;;;;4991166;28;20030;-78
2022/01/18 03:21:46;;;;;;;63.25;36.75;;;4.60;99.90;;;;;;4992359;28;20038;-78
2022/01/18 03:24:20;;;;;;;68.70;39.65;;;4.40;99.90;;;;;;4991328;28;20052;-78
2022/01/18 03:29:36;;;;;;;65.57;38.10;;;4.20;99.90;;;;;;4993035;28;20057;-78
2022/01/18 03:32:03;;;;;;;63.55;37.88;;;4.10;99.90;;;;;;4991222;28;20544;-74
2022/01/18 03:34:29;;;;;;;67.15;38.53;;;4.00;99.90;;;;;;4991185;28;20037;-79
2022/01/18 03:36:55;;;;;;;64.90;36.70;;;4.00;99.90;;;;;;4992310;28;20030;-79
2022/01/18 03:39:21;;;;;;;67.00;38.30;;;3.90;99.90;;;;;;4991079;28;20041;-79
2022/01/18 03:41:57;;;;;;;63.72;37.95;;;3.90;99.90;;;;;;4988623;28;20528;-78
2022/01/18 03:44:26;;;;;;;67.18;38.22;;;3.80;99.90;;;;;;4991486;28;20543;-78
2022/01/18 03:46:53;;;;;;;66.32;38.63;;;3.60;99.90;;;;;;4995395;28;20038;-79
2022/01/18 03:49:22;;;;;;;66.15;39.25;;;3.60;99.90;;;;;;4995260;28;20050;-79
2022/01/18 03:51:48;;;;;;;66.18;39.08;;;3.60;99.90;;;;;;4995403;28;20117;-79
2022/01/18 03:54:20;;;;;;;66.50;39.03;;;3.50;99.90;;;;;;4994340;28;20399;-79
2022/01/18 03:56:46;;;;;;;59.63;36.45;;;3.60;99.90;;;;;;4994196;28;20026;-79
2022/01/18 03:59:12;;;;;;;61.10;36.28;;;3.60;99.90;;;;;;4995253;28;20030;-79
2022/01/18 04:01:38;;;;;;;59.28;35.90;;;3.60;99.90;;;;;;4995291;28;20444;-78
2022/01/18 04:04:04;;;;;;;60.50;35.20;;;3.60;99.90;;;;;;4993996;28;20034;-79
2022/01/18 04:06:29;;;;;;;59.37;35.90;;;3.50;99.90;;;;;;4993708;28;20030;-79
2022/01/18 04:08:55;;;;;;;59.90;33.37;;;3.40;99.90;;;;;;4993805;28;20026;-79
2022/01/18 04:11:21;;;;;;;57.43;32.90;;;3.50;99.90;;;;;;4995072;28;20030;-79
2022/01/18 04:13:47;;;;;;;57.20;32.33;;;3.40;99.90;;;;;;4995130;28;20030;-79
2022/01/18 04:16:13;;;;;;;53.60;31.60;;;3.40;99.90;;;;;;4993234;28;20060;-79
2022/01/18 04:29:09;;;;;;;38.17;23.57;;;3.40;99.90;;;;;;4975228;28;20030;-78
2022/01/18 04:31:36;;;;;;;40.30;23.73;;;3.40;99.90;;;;;;4975310;28;20036;-78
2022/01/18 04:34:02;;;;;;;36.27;22.20;;;3.40;99.90;;;;;;4974037;28;20088;-79
2022/01/18 04:36:28;;;;;;;36.33;21.80;;;3.40;99.90;;;;;;4975160;28;20026;-79
2022/01/18 04:38:54;;;;;;;30.25;19.30;;;3.40;99.90;;;;;;4975121;28;20026;-79
2022/01/18 04:41:26;;;;;;;33.28;19.35;;;3.40;99.90;;;;;;4990140;28;20034;-79
2022/01/18 04:49:11;;;;;;;34.20;19.50;;;3.60;99.90;;;;;;4975295;28;20115;-78
2022/01/18 04:51:37;;;;;;;31.93;19.50;;;3.50;99.90;;;;;;4992197;28;20023;-78
2022/01/18 04:54:07;;;;;;;31.77;19.77;;;3.50;99.90;;;;;;4992926;28;20193;-79
2022/01/18 04:59:07;;;;;;;28.93;15.97;;;3.40;99.90;;;;;;4994224;28;20125;-78
2022/01/18 05:01:34;;;;;;;28.17;16.47;;;3.50;99.90;;;;;;4994166;28;20073;-78
2022/01/18 05:04:00;;;;;;;23.83;13.80;;;3.60;99.90;;;;;;4994261;28;20064;-79
2022/01/18 05:06:26;;;;;;;19.53;12.07;;;3.60;99.90;;;;;;4992679;28;20054;-79
2022/01/18 05:08:52;;;;;;;16.97;10.30;;;3.60;99.90;;;;;;4992629;28;20022;-79
2022/01/18 05:11:20;;;;;;;16.00;9.70;;;3.70;99.90;;;;;;4994135;28;20101;-78
2022/01/18 05:19:22;;;;;;;17.77;11.75;;;3.70;99.90;;;;;;4992557;28;20203;-78
2022/01/18 05:24:24;;;;;;;15.60;10.18;;;3.80;99.90;;;;;;4993850;28;20434;-79
2022/01/18 05:26:52;;;;;;;16.37;9.10;;;3.90;99.90;;;;;;4993571;28;20365;-79
2022/01/18 05:29:18;;;;;;;9.77;7.27;;;3.90;99.90;;;;;;4993523;28;20109;-78
2022/01/18 05:31:44;;;;;;;14.47;9.47;;;4.00;99.90;;;;;;4993633;28;20018;-78
2022/01/18 05:34:11;;;;;;;16.83;10.70;;;4.00;99.90;;;;;;4993588;28;20033;-78
2022/01/18 05:36:37;;;;;;;17.77;10.73;;;3.90;99.90;;;;;;4993325;28;20052;-78
2022/01/18 05:39:04;;;;;;;17.40;11.43;;;3.80;99.90;;;;;;4993511;28;20026;-78
2022/01/18 05:41:30;;;;;;;14.57;9.80;;;3.80;99.90;;;;;;4993533;28;20088;-78
2022/01/18 05:43:56;;;;;;;17.53;11.97;;;3.80;99.90;;;;;;4993428;28;20026;-78
2022/01/18 05:46:22;;;;;;;19.17;11.57;;;3.70;99.90;;;;;;4993258;28;20026;-78
2022/01/18 05:48:47;;;;;;;18.60;12.60;;;3.60;99.90;;;;;;4993137;28;20038;-78
2022/01/18 05:51:13;;;;;;;21.23;14.00;;;3.40;99.90;;;;;;4993224;28;20512;-78
2022/01/18 05:53:41;;;;;;;28.27;16.23;;;3.40;99.90;;;;;;4993118;28;20021;-78
2022/01/18 05:56:11;;;;;;;29.53;18.00;;;3.40;99.90;;;;;;4993347;28;20027;-79
2022/01/18 05:58:43;;;;;;;30.83;18.30;;;3.40;99.90;;;;;;4992966;28;20022;-79
2022/01/18 06:01:08;;;;;;;37.05;22.02;;;3.20;99.90;;;;;;4992037;28;20104;-79
2022/01/18 06:03:49;;;;;;;35.20;19.93;;;3.20;99.90;;;;;;4993091;28;20306;-79
2022/01/18 06:08:59;;;;;;;40.03;21.53;;;3.30;99.90;;;;;;4992516;28;20506;-79
2022/01/18 06:11:24;;;;;;;16.83;11.60;;;3.20;99.90;;;;;;4992453;28;20026;-79
2022/01/18 06:13:50;;;;;;;29.90;18.07;;;3.40;99.90;;;;;;4992663;28;20030;-79
2022/01/18 06:16:16;;;;;;;37.80;21.27;;;3.30;99.90;;;;;;4991623;28;20528;-79
2022/01/18 06:18:42;;;;;;;31.77;19.50;;;3.30;99.90;;;;;;4992684;28;20042;-79
2022/01/18 06:21:07;;;;;;;30.10;19.43;;;3.30;99.90;;;;;;4991466;28;20117;-79
2022/01/18 06:23:33;;;;;;;31.10;18.20;;;3.20;99.90;;;;;;4992167;28;20023;-79
2022/01/18 06:26:02;;;;;;;31.97;18.20;;;3.20;99.90;;;;;;4992497;28;20034;-79
2022/01/18 06:28:29;;;;;;;29.57;18.10;;;3.20;99.90;;;;;;4991163;28;20451;-79
2022/01/18 06:30:54;;;;;;;30.63;17.83;;;3.00;99.90;;;;;;4992619;28;20031;-79
2022/01/18 06:33:20;;;;;;;28.57;17.87;;;3.00;99.90;;;;;;4992482;28;20085;-79
2022/01/18 06:35:46;;;;;;;26.80;16.47;;;3.00;99.90;;;;;;4992589;28;20029;-79
2022/01/18 06:38:13;;;;;;;21.67;14.23;;;3.00;99.90;;;;;;4992421;28;20022;-79
2022/01/18 06:40:56;;;;;;;26.97;15.30;;;3.00;99.90;;;;;;4993014;28;20077;-79
2022/01/18 06:43:22;;;;;;;26.13;16.40;;;3.00;99.90;;;;;;4991388;28;20026;-79
2022/01/18 06:45:48;;;;;;;22.83;13.67;;;3.00;99.90;;;;;;4991208;28;20384;-78
2022/01/18 06:48:14;;;;;;;20.00;12.03;;;3.00;99.90;;;;;;4993053;28;20049;-79
2022/01/18 06:50:39;;;;;;;5.40;4.13;;;3.20;99.90;;;;;;4992220;28;20053;-79
2022/01/18 06:53:05;;;;;;;7.73;4.33;;;3.30;99.90;;;;;;4992937;28;20544;-79
2022/01/18 06:55:31;;;;;;;4.37;3.50;;;3.50;99.90;;;;;;4992490;28;20061;-79
2022/01/18 06:57:57;;;;;;;4.37;3.33;;;3.60;99.90;;;;;;4992164;28;20244;-79
2022/01/18 07:00:23;;;;;;;4.43;2.80;;;3.80;99.90;;;;;;4992307;28;20027;-79
2022/01/18 07:02:49;;;;;;;3.50;2.90;;;3.90;99.90;;;;;;4990836;28;20027;-79
2022/01/18 07:05:15;;;;;;;5.27;3.27;;;3.90;99.90;;;;;;4992067;28;20484;-79
2022/01/18 07:07:42;;;;;;;2.43;1.77;;;3.90;99.90;;;;;;4992048;28;20172;-79
2022/01/18 07:10:09;;;;;;;3.87;0.90;;;4.00;99.90;;;;;;4990996;28;20100;-79
2022/01/18 07:12:35;;;;;;;0.40;0.40;;;4.30;99.90;;;;;;4991940;28;20042;-79
2022/01/18 07:15:06;;;;;;;0.53;0.50;;;4.50;99.90;;;;;;4991896;28;20109;-79
2022/01/18 07:17:33;;;;;;;0.40;0.40;;;4.70;99.90;;;;;;4990805;28;20037;-79
2022/01/18 07:19:58;;;;;;;0.95;0.60;;;4.90;99.90;;;;;;4995157;28;20041;-78
2022/01/18 07:22:24;;;;;;;0.60;0.50;;;5.10;99.40;;;;;;4996130;28;20370;-79
2022/01/18 07:24:55;;;;;;;0.77;0.55;;;5.30;98.60;;;;;;4995986;28;20178;-78
2022/01/18 07:27:21;;;;;;;1.90;0.50;;;5.40;98.30;;;;;;4996071;28;20026;-79
2022/01/18 07:29:47;;;;;;;0.60;0.60;;;5.50;97.60;;;;;;4994533;28;20030;-79
2022/01/18 07:32:13;;;;;;;0.35;0.35;;;5.60;97.10;;;;;;4995986;28;20059;-78
2022/01/18 07:34:51;;;;;;;1.17;0.63;;;5.70;96.60;;;;;;4995776;28;20026;-79
2022/01/18 07:37:17;;;;;;;4.32;0.70;;;5.90;96.20;;;;;;4995722;28;20029;-79
2022/01/18 07:39:42;;;;;;;0.65;0.65;;;6.00;95.70;;;;;;4995792;28;20101;-78
2022/01/18 07:42:09;;;;;;;0.60;0.40;;;6.00;95.70;;;;;;4995938;28;20026;-79
2022/01/18 07:44:34;;;;;;;4.50;0.60;;;6.10;95.30;;;;;;4995943;28;20390;-78
2022/01/18 07:47:00;;;;;;;1.02;0.65;;;6.20;95.10;;;;;;4994951;28;20101;-79
2022/01/18 07:49:26;;;;;;;1.00;0.68;;;6.30;94.80;;;;;;4996709;28;20138;-79
2022/01/18 07:51:52;;;;;;;2.15;0.60;;;6.30;94.30;;;;;;4996334;28;20023;-79
2022/01/18 07:54:18;;;;;;;1.23;0.57;;;6.40;94.10;;;;;;4996608;28;20033;-79
2022/01/18 07:56:44;;;;;;;0.70;0.68;;;6.50;93.50;;;;;;4996818;28;20459;-79
2022/01/18 07:59:11;;;;;;;0.77;0.73;;;6.50;93.80;;;;;;4994773;28;20042;-79
2022/01/18 08:01:37;;;;;;;0.77;0.63;;;6.50;94.20;;;;;;4994436;28;20034;-79
2022/01/18 08:04:03;;;;;;;2.65;1.77;;;6.60;93.40;;;;;;4995574;28;20392;-79
2022/01/18 08:06:29;;;;;;;7.93;3.60;;;6.60;94.30;;;;;;4995522;28;20026;-79
2022/01/18 08:08:55;;;;;;;9.77;4.95;;;6.50;97.00;;;;;;4994123;28;20033;-79
2022/01/18 08:11:21;;;;;;;12.88;7.40;;;6.40;98.90;;;;;;4994938;28;20022;-79
2022/01/18 08:13:49;;;;;;;22.67;10.80;;;6.30;98.80;;;;;;4996405;28;20058;-79
2022/01/18 08:16:44;;;;;;;22.38;13.02;;;6.20;99.30;;;;;;4994497;28;20054;-78
2022/01/18 08:19:08;;;;;;;24.75;14.05;;;6.10;99.90;;;;;;4995956;28;20038;-79
2022/01/18 08:21:34;;;;;;;27.17;14.25;;;6.00;99.90;;;;;;4996053;28;20027;-78
2022/01/18 08:24:00;;;;;;;28.08;14.20;;;5.90;99.90;;;;;;4994843;28;20034;-79
2022/01/18 08:26:26;;;;;;;26.63;14.57;;;5.80;99.90;;;;;;4995131;28;20109;-79
2022/01/18 08:28:52;;;;;;;33.75;15.98;;;5.80;99.90;;;;;;4991160;28;20055;-78
2022/01/18 08:31:18;;;;;;;30.98;15.98;;;5.70;99.90;;;;;;4975799;28;20507;-78
2022/01/18 08:33:43;;;;;;;27.73;16.58;;;5.70;99.90;;;;;;4976640;28;20105;-79
2022/01/18 08:36:09;;;;;;;32.25;17.02;;;5.70;99.90;;;;;;4991563;28;20058;-78
2022/01/18 08:38:37;;;;;;;30.35;16.83;;;5.60;99.90;;;;;;4976482;28;20023;-78
2022/01/18 08:41:04;;;;;;;29.95;16.45;;;5.70;99.90;;;;;;4976509;28;20057;-78
2022/01/18 08:43:31;;;;;;;34.03;17.92;;;5.70;99.90;;;;;;4991436;28;20034;-78
2022/01/18 08:46:01;;;;;;;39.72;21.88;;;5.70;99.90;;;;;;4991286;28;20401;-78
2022/01/18 08:48:27;;;;;;;39.47;22.27;;;5.80;99.90;;;;;;4976340;28;20485;-78
2022/01/18 08:50:53;;;;;;;41.38;24.42;;;5.80;99.90;;;;;;4976338;28;20023;-78
2022/01/18 08:53:18;;;;;;;48.40;26.17;;;5.90;99.90;;;;;;4992335;28;20025;-79
2022/01/18 08:55:44;;;;;;;52.70;27.75;;;5.90;99.90;;;;;;4995629;28;20022;-78
2022/01/18 08:58:10;;;;;;;51.47;27.17;;;5.90;99.90;;;;;;4994958;28;20081;-76
2022/01/18 09:00:36;;;;;;;49.67;27.15;;;6.00;99.90;;;;;;4995348;28;20058;-77
2022/01/18 09:03:03;;;;;;;46.38;24.25;;;5.90;99.90;;;;;;4994963;28;20026;-77
2022/01/18 09:05:29;;;;;;;46.22;25.63;;;5.90;99.90;;;;;;4995193;28;20030;-76
2022/01/18 09:07:56;;;;;;;45.88;25.48;;;6.00;99.90;;;;;;4995135;28;20480;-76
2022/01/18 09:10:25;;;;;;;51.15;27.17;;;6.00;99.90;;;;;;4995081;28;20072;-76
2022/01/18 09:12:52;;;;;;;46.40;26.23;;;5.90;99.90;;;;;;4992454;28;20109;-77
2022/01/18 09:15:17;;;;;;;49.97;27.23;;;5.90;99.90;;;;;;4987634;28;20018;-76
2022/01/18 09:17:43;;;;;;;46.92;23.90;;;6.00;99.90;;;;;;4973222;28;20031;-77
2022/01/18 09:20:12;;;;;;;49.45;25.67;;;6.00;99.90;;;;;;4975061;28;20030;-77
2022/01/18 09:22:40;;;;;;;49.50;27.10;;;6.10;99.90;;;;;;4973791;28;20023;-76
2022/01/18 09:25:10;;;;;;;55.83;28.55;;;6.20;99.90;;;;;;4975490;28;20058;-77
2022/01/18 09:27:36;;;;;;;58.70;27.92;;;6.20;99.90;;;;;;4975329;28;20037;-77
2022/01/18 09:30:02;;;;;;;58.13;28.00;;;6.20;99.90;;;;;;4975348;28;20397;-77
2022/01/18 09:32:28;;;;;;;55.15;27.83;;;6.30;99.90;;;;;;4975606;28;20510;-76
2022/01/18 09:34:54;;;;;;;57.60;28.35;;;6.40;99.90;;;;;;4974271;28;20027;-77
2022/01/18 09:37:20;;;;;;;53.78;27.88;;;6.50;99.90;;;;;;4974096;28;20113;-77
2022/01/18 09:39:46;;;;;;;56.58;28.55;;;6.50;99.90;;;;;;4972809;28;20118;-76
2022/01/18 09:42:12;;;;;;;54.70;27.75;;;6.50;99.90;;;;;;4973952;28;20468;-77
2022/01/18 09:44:39;;;;;;;58.80;28.55;;;6.60;99.90;;;;;;4973993;28;20451;-76
2022/01/18 09:47:06;;;;;;;58.85;29.67;;;6.80;99.90;;;;;;4973986;28;20113;-76
2022/01/18 09:49:35;;;;;;;62.38;30.15;;;7.00;99.90;;;;;;4973794;28;20551;-76
2022/01/18 09:52:01;;;;;;;57.50;29.75;;;7.20;99.90;;;;;;4978792;28;20081;-73
2022/01/18 09:54:27;;;;;;;58.53;29.35;;;7.30;99.90;;;;;;4992613;28;20031;-76
2022/01/18 09:56:53;;;;;;;62.38;30.85;;;7.30;99.90;;;;;;4994294;28;20083;-76
2022/01/18 09:59:19;;;;;;;55.17;28.85;;;7.40;99.90;;;;;;4994017;28;20060;-76
2022/01/18 10:01:45;;;;;;;61.03;28.33;;;7.40;99.90;;;;;;4993273;28;20034;-76
2022/01/18 10:04:21;;;;;;;52.50;27.05;;;7.30;99.90;;;;;;4993107;28;20040;-76
2022/01/18 10:06:52;;;;;;;56.13;28.13;;;7.40;99.90;;;;;;4992946;28;20026;-76
2022/01/18 10:09:20;;;;;;;57.33;28.20;;;7.40;99.90;;;;;;4992930;28;20113;-76
2022/01/18 10:12:08;;;;;;;55.90;28.13;;;7.40;99.90;;;;;;4991409;28;20601;-77
2022/01/18 10:14:36;;;;;;;57.45;27.73;;;7.50;99.90;;;;;;4992923;28;20369;-76
2022/01/18 10:17:03;;;;;;;57.08;27.83;;;7.40;99.90;;;;;;4991397;28;20054;-76
2022/01/18 10:19:33;;;;;;;52.67;25.85;;;7.40;99.90;;;;;;4992669;28;20053;-77
2022/01/18 10:22:19;;;;;;;55.15;27.20;;;7.60;99.90;;;;;;4985842;28;20472;-77
2022/01/18 10:24:44;;;;;;;60.78;27.52;;;7.60;99.90;;;;;;4973320;28;20030;-77
2022/01/18 10:27:13;;;;;;;54.78;27.48;;;7.60;99.90;;;;;;4973088;28;20045;-76
2022/01/18 10:29:50;;;;;;;56.53;27.27;;;7.60;99.90;;;;;;4971885;28;20038;-77
2022/01/18 10:32:35;;;;;;;59.08;28.48;;;7.70;99.90;;;;;;4980658;28;20543;-76
2022/01/18 10:35:07;;;;;;;56.40;26.70;;;7.80;99.90;;;;;;4991086;28;20475;-76
2022/01/18 10:37:38;;;;;;;55.50;27.25;;;8.00;99.90;;;;;;4992375;28;20018;-76
2022/01/18 10:40:13;;;;;;;53.50;27.38;;;8.10;99.90;;;;;;4992437;28;20551;-76
2022/01/18 10:42:39;;;;;;;52.80;25.75;;;8.20;99.90;;;;;;4992257;28;20105;-76
2022/01/18 10:45:26;;;;;;;58.42;27.05;;;8.20;99.90;;;;;;4992306;28;20118;-76
2022/01/18 10:48:13;;;;;;;51.92;25.33;;;8.50;99.90;;;;;;4992088;28;20516;-76
2022/01/18 10:50:44;;;;;;;47.85;25.60;;;8.70;99.90;;;;;;4992057;28;20487;-76
2022/01/18 10:53:25;;;;;;;47.25;25.08;;;8.70;99.90;;;;;;4991748;28;20025;-76
2022/01/18 10:56:12;;;;;;;47.65;24.83;;;8.90;99.90;;;;;;4991031;28;20034;-77
2022/01/18 10:58:57;;;;;;;50.50;23.90;;;9.00;99.90;;;;;;4992187;28;20023;-76
2022/01/18 11:01:23;;;;;;;49.05;24.58;;;9.10;99.90;;;;;;4992354;28;20442;-76
2022/01/18 11:04:15;;;;;;;48.15;23.70;;;9.10;99.90;;;;;;4992151;28;20030;-76
2022/01/18 11:06:55;;;;;;;41.60;21.77;;;9.00;99.90;;;;;;4990930;28;20488;-76
2022/01/18 11:09:21;;;;;;;47.95;23.75;;;9.00;99.90;;;;;;4992043;28;20038;-77
2022/01/18 11:11:48;;;;;;;53.90;26.63;;;9.00;99.90;;;;;;4992037;28;20535;-76
2022/01/18 11:14:19;;;;;;;51.13;26.30;;;9.20;99.90;;;;;;4990860;28;20118;-76
2022/01/18 11:16:47;;;;;;;53.70;26.60;;;9.30;99.90;;;;;;4990746;28;20057;-76
2022/01/18 11:21:46;;;;;;;56.30;25.90;;;9.50;99.90;;;;;;4991855;28;20038;-76
2022/01/18 11:24:15;;;;;;;52.30;25.58;;;9.50;99.90;;;;;;4992088;28;20034;-76
2022/01/18 11:26:43;;;;;;;48.83;26.00;;;9.50;99.90;;;;;;4991883;28;20030;-76
2022/01/18 11:29:11;;;;;;;51.45;24.13;;;9.60;99.90;;;;;;4990614;28;20033;-76
2022/01/18 11:31:37;;;;;;;50.15;25.30;;;9.60;99.90;;;;;;4990812;28;20029;-76
2022/01/18 11:34:05;;;;;;;63.55;26.05;;;9.80;99.90;;;;;;4991816;28;20023;-76
2022/01/18 11:36:46;;;;;;;55.17;26.05;;;9.70;99.90;;;;;;4990651;28;20033;-76
2022/01/18 11:39:12;;;;;;;44.83;23.70;;;9.70;99.90;;;;;;4991958;28;20399;-77
2022/01/18 11:41:38;;;;;;;50.00;24.27;;;9.80;99.90;;;;;;4992041;28;20431;-77
2022/01/18 11:44:16;;;;;;;53.00;25.48;;;9.80;99.90;;;;;;4990531;28;20101;-76
2022/01/18 11:46:52;;;;;;;48.95;25.65;;;9.80;99.90;;;;;;4990459;28;20396;-77
2022/01/18 11:49:25;;;;;;;56.00;25.65;;;9.90;99.90;;;;;;4991653;28;20042;-76
2022/01/18 11:52:10;;;;;;;49.15;24.05;;;9.90;99.90;;;;;;4991559;28;20023;-76
2022/01/18 11:54:56;;;;;;;46.47;23.80;;;9.90;99.90;;;;;;4991729;28;20058;-76
2022/01/18 11:57:21;;;;;;;43.65;23.33;;;10.00;99.90;;;;;;4991590;28;20034;-76
2022/01/18 11:59:51;;;;;;;40.70;21.85;;;10.00;99.90;;;;;;4991844;28;20037;-76
2022/01/18 12:02:30;;;;;;;41.85;21.58;;;10.00;99.90;;;;;;4991750;28;20034;-76
2022/01/18 12:04:58;;;;;;;43.22;21.05;;;10.00;99.90;;;;;;4990343;28;20038;-76
2022/01/18 12:07:36;;;;;;;40.70;20.42;;;10.00;99.70;;;;;;4994858;28;20032;-76
2022/01/18 12:10:31;;;;;;;38.25;20.17;;;10.10;99.60;;;;;;4995043;28;20503;-76
2022/01/18 12:13:12;;;;;;;38.45;21.23;;;10.30;99.10;;;;;;4994994;28;20113;-76
2022/01/18 12:15:41;;;;;;;41.67;20.00;;;10.30;99.00;;;;;;4994971;28;20039;-76
2022/01/18 12:18:22;;;;;;;40.08;19.90;;;10.50;98.50;;;;;;4994632;28;20112;-76
2022/01/18 12:20:50;;;;;;;40.22;19.55;;;10.40;98.50;;;;;;4994911;28;20109;-77
2022/01/18 12:23:18;;;;;;;34.88;18.02;;;10.40;97.90;;;;;;4994850;28;20065;-76
2022/01/18 12:28:51;;;;;;;42.90;19.35;;;10.50;97.70;;;;;;4994180;28;20042;-76
2022/01/18 12:34:32;;;;;;;37.97;18.38;;;10.60;97.30;;;;;;4994618;28;20037;-76
2022/01/18 12:37:07;;;;;;;37.40;17.42;;;10.70;97.10;;;;;;4994695;28;20026;-76
2022/01/18 12:39:54;;;;;;;35.13;17.23;;;10.70;97.10;;;;;;4994741;28;20070;-77
2022/01/18 12:45:29;;;;;;;34.65;16.55;;;10.80;97.50;;;;;;4994451;28;20480;-76
2022/01/18 12:47:59;;;;;;;39.60;17.83;;;10.70;97.40;;;;;;4994434;28;20034;-76
2022/01/18 12:50:47;;;;;;;36.72;18.92;;;10.70;97.50;;;;;;4994593;28;20019;-76
2022/01/18 12:53:14;;;;;;;36.38;19.48;;;10.70;96.90;;;;;;4994019;28;20488;-76
2022/01/18 12:55:50;;;;;;;40.03;18.65;;;10.70;97.60;;;;;;4994516;28;20022;-76
2022/01/18 12:58:22;;;;;;;43.97;18.48;;;10.60;97.90;;;;;;4994215;28;20022;-76
2022/01/18 13:01:02;;;;;;;41.95;17.45;;;10.70;97.90;;;;;;4994175;28;20179;-76
2022/01/18 13:03:29;;;;;;;33.72;16.58;;;10.70;97.80;;;;;;4994423;28;20113;-76
2022/01/18 13:05:58;;;;;;;29.83;16.05;;;10.60;98.20;;;;;;4995339;28;20088;-74
2022/01/18 13:08:42;;;;;;;32.95;16.52;;;10.60;98.00;;;;;;4994546;28;20101;-74
2022/01/18 13:11:12;;;;;;;32.38;14.95;;;10.60;98.00;;;;;;4985400;28;20031;-74
2022/01/18 13:13:38;;;;;;;37.65;17.48;;;10.70;97.70;;;;;;4982087;28;20038;-74
2022/01/18 13:27:09;;;;;;;39.15;17.60;;;10.80;98.70;;;;;;4988980;28;20178;-74
2022/01/18 13:29:34;;;;;;;37.00;16.58;;;10.70;98.80;;;;;;4982858;28;20030;-73
2022/01/18 13:32:04;;;;;;;41.13;18.58;;;10.70;99.10;;;;;;4987054;28;20130;-74
2022/01/18 13:34:34;;;;;;;35.15;16.67;;;10.70;99.40;;;;;;4967780;28;20022;-74
2022/01/18 13:37:04;;;;;;;36.60;17.20;;;10.70;99.60;;;;;;4967414;28;20035;-74
2022/01/18 13:39:39;;;;;;;34.95;16.67;;;10.60;99.90;;;;;;4967882;28;20480;-74
2022/01/18 13:42:09;;;;;;;33.00;15.15;;;10.60;99.80;;;;;;4968125;28;20033;-74
2022/01/18 13:44:35;;;;;;;33.72;17.58;;;10.60;99.90;;;;;;4968215;28;20074;-74
2022/01/18 13:47:19;;;;;;;32.20;16.65;;;10.60;99.90;;;;;;4967659;28;20031;-75
2022/01/18 13:49:45;;;;;;;34.40;16.50;;;10.60;99.90;;;;;;4967202;28;20030;-74
2022/01/18 13:52:14;;;;;;;32.25;16.08;;;10.50;99.90;;;;;;4974027;28;20073;-74
2022/01/18 13:54:52;;;;;;;38.13;15.40;;;10.60;99.90;;;;;;4991567;28;20019;-74
2022/01/18 13:57:22;;;;;;;32.65;14.43;;;10.50;99.90;;;;;;4991777;28;20026;-74
2022/01/18 13:59:50;;;;;;;32.97;15.00;;;10.50;99.90;;;;;;4990624;28;20121;-74
2022/01/18 14:02:21;;;;;;;34.65;15.65;;;10.40;99.90;;;;;;4991444;28;20070;-74
2022/01/18 14:05:09;;;;;;;31.13;14.83;;;10.50;99.90;;;;;;4993157;28;20055;-74
2022/01/18 14:07:35;;;;;;;31.83;14.68;;;10.60;99.90;;;;;;4992151;28;20292;-74
2022/01/18 14:10:03;;;;;;;38.22;14.73;;;10.60;99.90;;;;;;4993000;28;20109;-73
2022/01/18 14:12:34;;;;;;;28.88;13.57;;;10.50;99.90;;;;;;4992778;28;20077;-73
2022/01/18 14:15:00;;;;;;;34.50;14.32;;;10.40;99.90;;;;;;4991958;28;20022;-74
2022/01/18 14:17:26;;;;;;;28.45;13.88;;;10.40;99.90;;;;;;4990604;28;20042;-74
2022/01/18 14:20:30;;;;;;;31.40;12.55;;;10.50;99.90;;;;;;4989035;28;20030;-73
2022/01/18 14:22:56;;;;;;;27.50;13.48;;;10.40;99.90;;;;;;4987416;28;20038;-74